sensor_id;sensor_type;location;lat;lon;timestamp;pressure;altitude;pressure_sealevel;temperature;humidity
49979;BME280;35869;50.990;6.962;2022-12-31T00:03:27;100255.75;;;11.32;100.00
49979;BME280;35869;50.990;6.962;2022-12-31T00:08:27;100264.28;;;11.34;100.00
49979;BME280;35869;50.990;6.962;2022-12-31T00:13:27;100268.56;;;11.35;100.00
49979;BME280;35869;50.990;6.962;2022-12-31T00:18:27;100263.22;;;11.38;100.00
49979;BME280;35869;50.990;6.962;2022-12-31T00:23:28;100249.56;;;11.48;100.00
49979;BME280;35869;50.990;6.962;2022-12-31T00:28:28;100256.72;;;11.45;100.00
49979;BME280;35869;50.990;6.962;2022-12-31T00:33:28;100259.09;;;11.50;100.00
49979;BME280;35869;50.990;6.962;2022-12-31T00:38:28;100259.75;;;11.53;100.00
49979;BME280;35869;50.990;6.962;2022-12-31T00:43:28;100255.03;;;11.60;100.00
49979;BME280;35869;50.990;6.962;2022-12-31T00:48:29;100252.84;;;11.68;100.00
49979;BME280;35869;50.990;6.962;2022-12-31T00:53:29;100242.34;;;11.69;100.00
49979;BME280;35869;50.990;6.962;2022-12-31T00:58:30;100227.94;;;11.78;100.00
49979;BME280;35869;50.990;6.962;2022-12-31T01:03:30;100231.66;;;11.90;100.00
49979;BME280;35869;50.990;6.962;2022-12-31T01:08:31;100219.75;;;11.86;100.00
49979;BME280;35869;50.990;6.962;2022-12-31T01:13:32;100230.56;;;11.94;100.00
49979;BME280;35869;50.990;6.962;2022-12-31T01:18:32;100224.34;;;11.96;100.00
49979;BME280;35869;50.990;6.962;2022-12-31T01:23:33;100229.69;;;12.09;100.00
49979;BME280;35869;50.990;6.962;2022-12-31T01:28:33;100223.66;;;12.23;100.00
49979;BME280;35869;50.990;6.962;2022-12-31T01:33:34;100228.41;;;12.31;100.00
49979;BME280;35869;50.990;6.962;2022-12-31T01:38:35;100217.81;;;12.34;100.00
49979;BME280;35869;50.990;6.962;2022-12-31T01:43:50;100214.09;;;12.52;100.00
49979;BME280;35869;50.990;6.962;2022-12-31T01:48:55;100250.59;;;12.38;100.00
49979;BME280;35869;50.990;6.962;2022-12-31T01:53:57;100254.59;;;12.43;100.00
49979;BME280;35869;50.990;6.962;2022-12-31T01:58:58;100252.28;;;12.81;100.00
49979;BME280;35869;50.990;6.962;2022-12-31T02:04:04;100252.47;;;12.78;100.00
49979;BME280;35869;50.990;6.962;2022-12-31T02:09:06;100247.59;;;13.01;100.00
49979;BME280;35869;50.990;6.962;2022-12-31T02:14:24;100251.34;;;12.82;100.00
49979;BME280;35869;50.990;6.962;2022-12-31T02:30:17;100244.69;;;13.20;100.00
49979;BME280;35869;50.990;6.962;2022-12-31T02:35:28;100256.81;;;13.06;100.00
49979;BME280;35869;50.990;6.962;2022-12-31T02:40:29;100256.16;;;13.17;100.00
49979;BME280;35869;50.990;6.962;2022-12-31T02:45:44;100267.69;;;13.13;100.00
49979;BME280;35869;50.990;6.962;2022-12-31T02:56:08;100270.34;;;13.27;100.00
49979;BME280;35869;50.990;6.962;2022-12-31T03:01:14;100266.59;;;13.17;100.00
49979;BME280;35869;50.990;6.962;2022-12-31T03:06:16;100257.78;;;13.47;100.00
49979;BME280;35869;50.990;6.962;2022-12-31T03:11:17;100256.94;;;13.60;100.00
49979;BME280;35869;50.990;6.962;2022-12-31T03:16:17;100265.78;;;13.58;100.00
49979;BME280;35869;50.990;6.962;2022-12-31T03:21:17;100269.19;;;13.73;100.00
49979;BME280;35869;50.990;6.962;2022-12-31T03:26:17;100287.66;;;13.70;100.00
49979;BME280;35869;50.990;6.962;2022-12-31T03:31:18;100283.31;;;13.83;100.00
49979;BME280;35869;50.990;6.962;2022-12-31T03:36:18;100274.22;;;13.76;100.00
49979;BME280;35869;50.990;6.962;2022-12-31T03:41:18;100282.00;;;13.90;100.00
49979;BME280;35869;50.990;6.962;2022-12-31T03:46:18;100294.22;;;13.90;100.00
49979;BME280;35869;50.990;6.962;2022-12-31T03:51:19;100298.19;;;13.95;100.00
49979;BME280;35869;50.990;6.962;2022-12-31T03:56:19;100288.09;;;14.03;100.00
49979;BME280;35869;50.990;6.962;2022-12-31T04:01:20;100283.47;;;13.94;100.00
49979;BME280;35869;50.990;6.962;2022-12-31T04:06:20;100296.13;;;14.00;100.00
49979;BME280;35869;50.990;6.962;2022-12-31T04:11:23;100284.00;;;13.99;100.00
49979;BME280;35869;50.990;6.962;2022-12-31T04:16:24;100282.56;;;14.08;100.00
49979;BME280;35869;50.990;6.962;2022-12-31T04:21:24;100284.91;;;14.25;100.00
49979;BME280;35869;50.990;6.962;2022-12-31T04:26:24;100281.22;;;14.15;100.00
49979;BME280;35869;50.990;6.962;2022-12-31T04:31:25;100285.22;;;14.21;100.00
49979;BME280;35869;50.990;6.962;2022-12-31T04:36:25;100296.91;;;14.15;100.00
49979;BME280;35869;50.990;6.962;2022-12-31T04:41:25;100312.91;;;14.23;100.00
49979;BME280;35869;50.990;6.962;2022-12-31T04:46:31;100313.56;;;14.39;100.00
49979;BME280;35869;50.990;6.962;2022-12-31T04:51:32;100324.97;;;14.26;100.00
49979;BME280;35869;50.990;6.962;2022-12-31T04:56:32;100323.28;;;14.25;100.00
49979;BME280;35869;50.990;6.962;2022-12-31T05:01:32;100338.09;;;14.24;100.00
49979;BME280;35869;50.990;6.962;2022-12-31T05:06:33;100338.97;;;14.25;100.00
49979;BME280;35869;50.990;6.962;2022-12-31T05:11:33;100350.84;;;14.43;100.00
49979;BME280;35869;50.990;6.962;2022-12-31T05:16:33;100341.22;;;14.44;100.00
49979;BME280;35869;50.990;6.962;2022-12-31T05:21:34;100333.53;;;14.55;100.00
49979;BME280;35869;50.990;6.962;2022-12-31T05:26:34;100330.28;;;14.64;100.00
49979;BME280;35869;50.990;6.962;2022-12-31T05:31:34;100355.56;;;14.51;100.00
49979;BME280;35869;50.990;6.962;2022-12-31T05:36:34;100353.34;;;14.45;100.00
49979;BME280;35869;50.990;6.962;2022-12-31T05:41:34;100376.81;;;14.59;100.00
49979;BME280;35869;50.990;6.962;2022-12-31T05:46:35;100351.50;;;14.59;100.00
49979;BME280;35869;50.990;6.962;2022-12-31T05:51:35;100350.06;;;14.68;100.00
49979;BME280;35869;50.990;6.962;2022-12-31T05:56:35;100354.66;;;14.64;100.00
49979;BME280;35869;50.990;6.962;2022-12-31T06:01:36;100342.31;;;14.79;100.00
49979;BME280;35869;50.990;6.962;2022-12-31T06:06:36;100368.78;;;14.87;100.00
49979;BME280;35869;50.990;6.962;2022-12-31T06:11:36;100369.09;;;14.70;100.00
49979;BME280;35869;50.990;6.962;2022-12-31T06:16:38;100375.19;;;14.96;100.00
49979;BME280;35869;50.990;6.962;2022-12-31T06:21:38;100382.41;;;15.05;100.00
49979;BME280;35869;50.990;6.962;2022-12-31T06:26:38;100386.09;;;15.03;100.00
49979;BME280;35869;50.990;6.962;2022-12-31T06:31:39;100392.56;;;14.84;100.00
49979;BME280;35869;50.990;6.962;2022-12-31T06:36:39;100415.41;;;15.08;100.00
49979;BME280;35869;50.990;6.962;2022-12-31T06:41:44;100417.91;;;15.09;100.00
49979;BME280;35869;50.990;6.962;2022-12-31T06:46:44;100426.81;;;15.07;100.00
49979;BME280;35869;50.990;6.962;2022-12-31T06:51:44;100431.63;;;15.13;100.00
49979;BME280;35869;50.990;6.962;2022-12-31T06:56:45;100434.88;;;15.04;100.00
49979;BME280;35869;50.990;6.962;2022-12-31T07:01:48;100431.94;;;15.08;100.00
49979;BME280;35869;50.990;6.962;2022-12-31T07:07:02;100450.81;;;15.13;100.00
49979;BME280;35869;50.990;6.962;2022-12-31T07:17:47;100452.66;;;15.24;100.00
49979;BME280;35869;50.990;6.962;2022-12-31T07:22:50;100461.47;;;15.36;100.00
49979;BME280;35869;50.990;6.962;2022-12-31T07:39:00;100480.22;;;15.30;100.00
49979;BME280;35869;50.990;6.962;2022-12-31T07:44:23;100468.00;;;15.30;100.00
49979;BME280;35869;50.990;6.962;2022-12-31T07:49:29;100471.22;;;15.46;100.00
49979;BME280;35869;50.990;6.962;2022-12-31T07:54:30;100476.69;;;15.43;100.00
49979;BME280;35869;50.990;6.962;2022-12-31T08:05:03;100489.84;;;15.29;100.00
49979;BME280;35869;50.990;6.962;2022-12-31T08:10:21;100476.44;;;15.46;100.00
49979;BME280;35869;50.990;6.962;2022-12-31T08:15:23;100496.69;;;15.32;100.00
49979;BME280;35869;50.990;6.962;2022-12-31T08:20:23;100507.78;;;15.35;100.00
49979;BME280;35869;50.990;6.962;2022-12-31T08:25:54;100505.38;;;15.45;100.00
49979;BME280;35869;50.990;6.962;2022-12-31T08:31:03;100506.75;;;15.51;100.00
49979;BME280;35869;50.990;6.962;2022-12-31T08:41:42;100514.47;;;15.52;100.00
49979;BME280;35869;50.990;6.962;2022-12-31T08:46:48;100527.88;;;15.35;99.89
49979;BME280;35869;50.990;6.962;2022-12-31T08:51:54;100531.16;;;15.51;99.89
49979;BME280;35869;50.990;6.962;2022-12-31T09:07:07;100525.50;;;15.57;98.83
49979;BME280;35869;50.990;6.962;2022-12-31T09:12:30;100552.47;;;15.72;97.85
49979;BME280;35869;50.990;6.962;2022-12-31T09:17:48;100550.56;;;15.61;98.36
49979;BME280;35869;50.990;6.962;2022-12-31T09:22:50;100559.25;;;15.62;98.80
49979;BME280;35869;50.990;6.962;2022-12-31T09:28:09;100572.19;;;15.90;95.58
49979;BME280;35869;50.990;6.962;2022-12-31T09:33:32;100591.78;;;15.72;97.65
49979;BME280;35869;50.990;6.962;2022-12-31T09:38:53;100610.13;;;15.72;98.29
49979;BME280;35869;50.990;6.962;2022-12-31T09:49:53;100635.91;;;15.91;98.32
49979;BME280;35869;50.990;6.962;2022-12-31T10:00:19;100648.31;;;16.02;95.47
49979;BME280;35869;50.990;6.962;2022-12-31T10:10:49;100665.28;;;15.83;97.75
49979;BME280;35869;50.990;6.962;2022-12-31T10:38:15;100649.00;;;16.16;93.62
49979;BME280;35869;50.990;6.962;2022-12-31T10:59:56;100653.97;;;15.95;93.98
49979;BME280;35869;50.990;6.962;2022-12-31T11:20:32;100671.03;;;16.39;92.35
49979;BME280;35869;50.990;6.962;2022-12-31T11:48:03;100641.56;;;16.48;89.77
49979;BME280;35869;50.990;6.962;2022-12-31T11:53:42;100638.47;;;16.67;88.41
49979;BME280;35869;50.990;6.962;2022-12-31T11:58:50;100636.84;;;16.28;90.13
49979;BME280;35869;50.990;6.962;2022-12-31T12:03:51;100629.75;;;16.67;88.14
49979;BME280;35869;50.990;6.962;2022-12-31T12:08:54;100630.03;;;16.25;91.30
49979;BME280;35869;50.990;6.962;2022-12-31T12:13:57;100624.78;;;16.38;90.18
49979;BME280;35869;50.990;6.962;2022-12-31T12:19:05;100631.25;;;16.45;88.60
49979;BME280;35869;50.990;6.962;2022-12-31T12:24:18;100633.47;;;16.39;89.99
49979;BME280;35869;50.990;6.962;2022-12-31T12:29:27;100642.19;;;16.39;90.60
49979;BME280;35869;50.990;6.962;2022-12-31T12:39:33;100617.00;;;16.49;90.28
49979;BME280;35869;50.990;6.962;2022-12-31T12:44:34;100611.53;;;16.40;90.03
49979;BME280;35869;50.990;6.962;2022-12-31T12:49:39;100622.00;;;16.52;90.31
49979;BME280;35869;50.990;6.962;2022-12-31T13:20:49;100692.25;;;16.36;89.10
49979;BME280;35869;50.990;6.962;2022-12-31T13:26:56;100695.59;;;16.13;89.93
49979;BME280;35869;50.990;6.962;2022-12-31T13:31:38;100700.63;;;16.16;90.38
49979;BME280;35869;50.990;6.962;2022-12-31T13:36:40;100701.88;;;16.10;90.20
49979;BME280;35869;50.990;6.962;2022-12-31T13:42:00;100701.56;;;16.15;90.61
49979;BME280;35869;50.990;6.962;2022-12-31T13:47:16;100697.56;;;15.84;92.71
49979;BME280;35869;50.990;6.962;2022-12-31T13:52:45;100688.94;;;15.94;93.05
49979;BME280;35869;50.990;6.962;2022-12-31T14:03:13;100690.25;;;16.02;95.57
49979;BME280;35869;50.990;6.962;2022-12-31T14:08:16;100687.28;;;15.93;96.30
49979;BME280;35869;50.990;6.962;2022-12-31T14:34:35;100677.00;;;15.78;97.10
49979;BME280;35869;50.990;6.962;2022-12-31T14:39:51;100672.25;;;15.70;97.82
49979;BME280;35869;50.990;6.962;2022-12-31T14:50:24;100676.88;;;15.66;98.04
49979;BME280;35869;50.990;6.962;2022-12-31T15:00:36;100673.97;;;15.57;97.20
49979;BME280;35869;50.990;6.962;2022-12-31T15:05:37;100674.19;;;15.54;96.17
49979;BME280;35869;50.990;6.962;2022-12-31T15:11:11;100673.53;;;15.50;96.86
49979;BME280;35869;50.990;6.962;2022-12-31T15:22:10;100694.16;;;15.42;95.80
49979;BME280;35869;50.990;6.962;2022-12-31T15:27:37;100704.78;;;15.26;95.97
49979;BME280;35869;50.990;6.962;2022-12-31T15:32:40;100702.59;;;15.33;94.77
49979;BME280;35869;50.990;6.962;2022-12-31T15:37:41;100713.91;;;15.33;95.71
49979;BME280;35869;50.990;6.962;2022-12-31T15:42:45;100720.66;;;15.37;92.82
49979;BME280;35869;50.990;6.962;2022-12-31T15:47:54;100723.50;;;15.20;96.43
49979;BME280;35869;50.990;6.962;2022-12-31T15:52:58;100720.69;;;15.23;93.99
49979;BME280;35869;50.990;6.962;2022-12-31T15:58:04;100729.31;;;15.11;95.17
49979;BME280;35869;50.990;6.962;2022-12-31T16:03:19;100720.22;;;15.31;93.10
49979;BME280;35869;50.990;6.962;2022-12-31T16:08:21;100708.03;;;15.30;91.22
49979;BME280;35869;50.990;6.962;2022-12-31T16:13:25;100712.81;;;15.23;91.28
49979;BME280;35869;50.990;6.962;2022-12-31T16:18:38;100720.34;;;15.15;93.06
49979;BME280;35869;50.990;6.962;2022-12-31T16:23:49;100730.34;;;15.08;91.14
49979;BME280;35869;50.990;6.962;2022-12-31T16:28:49;100718.09;;;15.09;91.62
49979;BME280;35869;50.990;6.962;2022-12-31T16:33:50;100716.88;;;15.00;93.35
49979;BME280;35869;50.990;6.962;2022-12-31T16:38:50;100712.88;;;14.94;92.09
49979;BME280;35869;50.990;6.962;2022-12-31T16:43:50;100717.88;;;14.85;93.47
49979;BME280;35869;50.990;6.962;2022-12-31T16:49:06;100729.06;;;14.87;92.60
49979;BME280;35869;50.990;6.962;2022-12-31T16:54:18;100734.41;;;14.85;91.28
49979;BME280;35869;50.990;6.962;2022-12-31T16:59:26;100728.25;;;14.72;92.96
49979;BME280;35869;50.990;6.962;2022-12-31T17:04:27;100729.38;;;14.68;93.44
49979;BME280;35869;50.990;6.962;2022-12-31T17:09:31;100726.53;;;14.71;90.76
49979;BME280;35869;50.990;6.962;2022-12-31T17:14:46;100729.75;;;14.62;90.91
49979;BME280;35869;50.990;6.962;2022-12-31T17:19:49;100733.84;;;14.52;92.52
49979;BME280;35869;50.990;6.962;2022-12-31T17:24:50;100726.28;;;14.61;89.48
49979;BME280;35869;50.990;6.962;2022-12-31T17:29:51;100725.16;;;14.51;91.19
49979;BME280;35869;50.990;6.962;2022-12-31T17:34:52;100723.47;;;14.50;89.85
49979;BME280;35869;50.990;6.962;2022-12-31T17:39:54;100716.56;;;14.49;90.47
49979;BME280;35869;50.990;6.962;2022-12-31T17:45:00;100714.19;;;14.45;89.43
49979;BME280;35869;50.990;6.962;2022-12-31T17:50:16;100706.53;;;14.41;88.74
49979;BME280;35869;50.990;6.962;2022-12-31T17:55:17;100697.66;;;14.44;88.51
49979;BME280;35869;50.990;6.962;2022-12-31T18:00:18;100703.16;;;14.39;88.93
49979;BME280;35869;50.990;6.962;2022-12-31T18:05:21;100700.25;;;14.30;89.46
49979;BME280;35869;50.990;6.962;2022-12-31T18:10:23;100701.56;;;14.23;88.59
49979;BME280;35869;50.990;6.962;2022-12-31T18:15:24;100705.94;;;14.22;87.50
49979;BME280;35869;50.990;6.962;2022-12-31T18:20:24;100700.00;;;14.20;88.83
49979;BME280;35869;50.990;6.962;2022-12-31T18:25:25;100698.13;;;14.22;85.25
49979;BME280;35869;50.990;6.962;2022-12-31T18:30:25;100701.81;;;14.04;87.49
49979;BME280;35869;50.990;6.962;2022-12-31T18:35:25;100698.28;;;14.05;87.27
49979;BME280;35869;50.990;6.962;2022-12-31T18:40:25;100688.91;;;14.01;87.92
49979;BME280;35869;50.990;6.962;2022-12-31T18:45:26;100691.38;;;14.04;83.78
49979;BME280;35869;50.990;6.962;2022-12-31T18:50:26;100708.09;;;14.01;85.80
49979;BME280;35869;50.990;6.962;2022-12-31T18:55:48;100699.38;;;14.01;84.57
49979;BME280;35869;50.990;6.962;2022-12-31T19:00:48;100702.00;;;14.01;82.81
49979;BME280;35869;50.990;6.962;2022-12-31T19:05:49;100695.53;;;13.92;84.62
49979;BME280;35869;50.990;6.962;2022-12-31T19:10:50;100689.44;;;14.07;81.60
49979;BME280;35869;50.990;6.962;2022-12-31T19:15:51;100703.13;;;13.97;84.06
49979;BME280;35869;50.990;6.962;2022-12-31T19:20:52;100703.38;;;13.92;84.28
49979;BME280;35869;50.990;6.962;2022-12-31T19:25:52;100697.88;;;13.97;83.09
49979;BME280;35869;50.990;6.962;2022-12-31T19:30:52;100700.78;;;13.92;82.31
49979;BME280;35869;50.990;6.962;2022-12-31T19:35:52;100697.56;;;13.87;83.22
49979;BME280;35869;50.990;6.962;2022-12-31T19:40:53;100714.94;;;13.88;81.22
49979;BME280;35869;50.990;6.962;2022-12-31T19:45:54;100713.72;;;13.94;79.53
49979;BME280;35869;50.990;6.962;2022-12-31T19:50:54;100722.63;;;13.75;81.61
49979;BME280;35869;50.990;6.962;2022-12-31T19:55:54;100741.00;;;13.90;80.09
49979;BME280;35869;50.990;6.962;2022-12-31T20:00:57;100743.94;;;13.83;82.48
49979;BME280;35869;50.990;6.962;2022-12-31T20:06:07;100760.19;;;13.88;81.21
49979;BME280;35869;50.990;6.962;2022-12-31T20:11:13;100772.50;;;13.86;78.06
49979;BME280;35869;50.990;6.962;2022-12-31T20:16:16;100783.47;;;13.77;81.09
49979;BME280;35869;50.990;6.962;2022-12-31T20:21:19;100788.69;;;13.77;81.05
49979;BME280;35869;50.990;6.962;2022-12-31T20:26:22;100789.63;;;13.76;78.45
49979;BME280;35869;50.990;6.962;2022-12-31T20:31:24;100807.50;;;13.68;78.86
49979;BME280;35869;50.990;6.962;2022-12-31T20:36:24;100804.22;;;13.65;80.35
49979;BME280;35869;50.990;6.962;2022-12-31T20:41:24;100806.75;;;13.66;78.01
49979;BME280;35869;50.990;6.962;2022-12-31T20:46:28;100814.06;;;13.59;81.42
49979;BME280;35869;50.990;6.962;2022-12-31T20:51:31;100821.25;;;13.56;79.41
49979;BME280;35869;50.990;6.962;2022-12-31T20:56:34;100826.63;;;13.53;80.52
49979;BME280;35869;50.990;6.962;2022-12-31T21:01:35;100827.06;;;13.61;78.98
49979;BME280;35869;50.990;6.962;2022-12-31T21:06:35;100829.41;;;13.50;78.91
49979;BME280;35869;50.990;6.962;2022-12-31T21:11:36;100835.81;;;13.60;78.79
49979;BME280;35869;50.990;6.962;2022-12-31T21:16:36;100848.03;;;13.59;78.18
49979;BME280;35869;50.990;6.962;2022-12-31T21:21:36;100847.28;;;13.57;78.25
49979;BME280;35869;50.990;6.962;2022-12-31T21:26:36;100853.00;;;13.64;75.72
49979;BME280;35869;50.990;6.962;2022-12-31T21:31:37;100842.38;;;13.51;77.54
49979;BME280;35869;50.990;6.962;2022-12-31T21:36:37;100849.88;;;13.57;76.16
49979;BME280;35869;50.990;6.962;2022-12-31T21:41:37;100849.53;;;13.48;78.64
49979;BME280;35869;50.990;6.962;2022-12-31T21:46:37;100846.78;;;13.51;77.06
49979;BME280;35869;50.990;6.962;2022-12-31T21:51:37;100855.69;;;13.47;76.76
49979;BME280;35869;50.990;6.962;2022-12-31T21:56:38;100858.97;;;13.34;80.64
49979;BME280;35869;50.990;6.962;2022-12-31T22:01:38;100870.94;;;13.39;78.10
49979;BME280;35869;50.990;6.962;2022-12-31T22:06:39;100857.38;;;13.32;78.21
49979;BME280;35869;50.990;6.962;2022-12-31T22:11:39;100859.88;;;13.33;79.00
49979;BME280;35869;50.990;6.962;2022-12-31T22:16:39;100865.94;;;13.34;77.71
49979;BME280;35869;50.990;6.962;2022-12-31T22:21:39;100860.41;;;13.40;78.09
49979;BME280;35869;50.990;6.962;2022-12-31T22:26:40;100866.91;;;13.49;75.29
49979;BME280;35869;50.990;6.962;2022-12-31T22:31:40;100873.81;;;13.50;76.04
49979;BME280;35869;50.990;6.962;2022-12-31T22:36:40;100869.91;;;13.41;78.12
49979;BME280;35869;50.990;6.962;2022-12-31T22:41:40;100867.44;;;13.22;78.66
49979;BME280;35869;50.990;6.962;2022-12-31T22:46:41;100875.91;;;13.59;75.46
49979;BME280;35869;50.990;6.962;2022-12-31T22:51:41;100863.13;;;13.54;77.15
49979;BME280;35869;50.990;6.962;2022-12-31T22:56:41;100882.31;;;13.53;77.15
49979;BME280;35869;50.990;6.962;2022-12-31T23:01:41;100880.72;;;13.51;76.79
49979;BME280;35869;50.990;6.962;2022-12-31T23:06:52;100873.75;;;13.67;77.25
49979;BME280;35869;50.990;6.962;2022-12-31T23:11:52;100869.25;;;13.69;73.77
49979;BME280;35869;50.990;6.962;2022-12-31T23:16:52;100866.47;;;13.56;75.65
49979;BME280;35869;50.990;6.962;2022-12-31T23:21:52;100853.66;;;13.52;78.61
49979;BME280;35869;50.990;6.962;2022-12-31T23:26:56;100859.00;;;13.66;74.58
49979;BME280;35869;50.990;6.962;2022-12-31T23:31:56;100862.34;;;13.68;75.48
49979;BME280;35869;50.990;6.962;2022-12-31T23:36:57;100869.75;;;13.44;78.75
49979;BME280;35869;50.990;6.962;2022-12-31T23:41:58;100865.13;;;13.65;74.41
49979;BME280;35869;50.990;6.962;2022-12-31T23:46:58;100881.81;;;13.63;77.13
49979;BME280;35869;50.990;6.962;2022-12-31T23:51:58;100891.56;;;13.59;77.32
49979;BME280;35869;50.990;6.962;2022-12-31T23:56:59;100892.28;;;13.78;74.16
